createdAt,value
2019-02-06T00:00:27.775Z,1.2
2019-02-06T00:01:27.761Z,1.1
2019-02-06T00:02:27.751Z,1
2019-02-06T00:03:27.821Z,0.9
2019-02-06T00:04:27.764Z,0.8
2019-02-06T00:05:27.768Z,0.7
2019-02-06T00:06:27.825Z,0.7
2019-02-06T00:07:27.764Z,0.6
2019-02-06T00:08:27.758Z,0.5
2019-02-06T00:09:27.766Z,0.5
2019-02-06T00:10:27.820Z,0.4
2019-02-06T00:11:27.786Z,0.4
2019-02-06T00:12:27.739Z,0.4
2019-02-06T00:13:27.809Z,0.3
2019-02-06T00:14:27.749Z,0.3
2019-02-06T00:15:27.780Z,0.3
2019-02-06T00:16:27.828Z,0.2
2019-02-06T00:17:27.784Z,0.2
2019-02-06T00:18:27.831Z,0.2
2019-02-06T00:19:27.745Z,0.2
2019-02-06T00:20:27.774Z,0.2
2019-02-06T00:21:27.767Z,0.1
2019-02-06T00:22:27.771Z,0.1
2019-02-06T00:23:27.828Z,0.1
2019-02-06T00:24:27.728Z,0.1
2019-02-06T00:25:27.751Z,0.1
2019-02-06T00:26:27.770Z,0.1
2019-02-06T00:27:27.809Z,0.1
2019-02-06T00:28:27.755Z,0.1
2019-02-06T00:29:27.747Z,0.1
2019-02-06T00:30:27.739Z,0.1
2019-02-06T00:31:27.741Z,0.1
2019-02-06T00:32:27.930Z,0
2019-02-06T00:33:27.754Z,0
2019-02-06T00:34:27.751Z,0
2019-02-06T00:35:27.790Z,0
2019-02-06T00:36:27.813Z,0
2019-02-06T00:37:27.758Z,0
2019-02-06T00:38:27.803Z,0
2019-02-06T00:39:27.773Z,0
2019-02-06T00:40:27.736Z,0
2019-02-06T00:41:27.744Z,0
2019-02-06T00:42:27.731Z,0
2019-02-06T00:43:27.813Z,0
2019-02-06T00:44:27.751Z,0
2019-02-06T00:45:27.865Z,0
2019-02-06T00:46:27.738Z,0
2019-02-06T00:47:27.757Z,0
2019-02-06T00:48:27.824Z,0
2019-02-06T00:49:27.751Z,0
2019-02-06T00:50:27.746Z,0
2019-02-06T00:51:27.796Z,0
2019-02-06T00:52:27.739Z,0
2019-02-06T00:53:27.755Z,0.1
2019-02-06T00:54:30.178Z,0.4
2019-02-06T00:55:30.283Z,0.7
2019-02-06T00:56:30.044Z,0.8
2019-02-06T00:57:29.979Z,0.8
2019-02-06T00:58:30.296Z,0.7
2019-02-06T00:59:27.803Z,0.7
2019-02-06T01:00:27.810Z,0.6
2019-02-06T01:01:27.748Z,0.5
2019-02-06T01:02:27.731Z,0.5
2019-02-06T01:03:27.817Z,0.4
2019-02-06T01:04:27.743Z,0.4
2019-02-06T01:05:37.761Z,0.4
2019-02-06T01:06:27.746Z,0.3
2019-02-06T01:07:27.740Z,0.3
2019-02-06T01:08:27.784Z,0.3
2019-02-06T01:09:27.743Z,0.2
2019-02-06T01:10:27.742Z,0.2
2019-02-06T01:11:27.810Z,0.2
2019-02-06T01:12:27.745Z,0.2
2019-02-06T01:13:27.721Z,0.2
2019-02-06T01:14:27.746Z,0.1
2019-02-06T01:15:27.750Z,0.1
2019-02-06T01:16:27.798Z,0.1
2019-02-06T01:17:27.739Z,0.1
2019-02-06T01:18:27.740Z,0.1
2019-02-06T01:19:27.722Z,0.1
2019-02-06T01:20:27.791Z,0.1
2019-02-06T01:21:27.736Z,0.1
2019-02-06T01:22:27.737Z,0.1
2019-02-06T01:23:27.808Z,0.1
2019-02-06T01:24:27.721Z,0.5
2019-02-06T01:25:27.730Z,0.9
2019-02-06T01:26:27.787Z,0.9
2019-02-06T01:27:27.739Z,0.8
2019-02-06T01:28:27.801Z,0.8
2019-02-06T01:29:27.726Z,0.8
2019-02-06T01:30:27.730Z,0.8
2019-02-06T01:31:27.732Z,0.7
2019-02-06T01:32:27.803Z,0.7
2019-02-06T01:33:27.739Z,0.6
2019-02-06T01:34:27.731Z,0.6
2019-02-06T01:35:27.714Z,0.5
2019-02-06T01:36:27.732Z,0.7
2019-02-06T01:37:27.818Z,0.9
2019-02-06T01:38:27.728Z,1.1
2019-02-06T01:39:27.723Z,1.4
2019-02-06T01:40:27.716Z,1.9
2019-02-06T01:41:27.716Z,2.5
2019-02-06T01:42:27.797Z,3
2019-02-06T01:43:27.721Z,3.5
2019-02-06T01:44:27.724Z,4
2019-02-06T01:45:27.735Z,4.6
2019-02-06T01:46:27.716Z,4.9
2019-02-06T01:47:27.794Z,5.2
2019-02-06T01:48:27.727Z,5.5
2019-02-06T01:49:27.726Z,6
2019-02-06T01:50:27.716Z,6.4
2019-02-06T01:51:27.719Z,7.3
2019-02-06T01:52:27.771Z,8
2019-02-06T01:53:27.720Z,8.8
2019-02-06T01:54:27.731Z,9.3
2019-02-06T01:55:27.725Z,9.7
2019-02-06T01:56:27.719Z,10
2019-02-06T01:57:27.703Z,10.2
2019-02-06T01:58:27.736Z,10.5
2019-02-06T01:59:27.720Z,10.6
2019-02-06T02:00:27.723Z,10.7
2019-02-06T02:01:27.778Z,10.7
2019-02-06T02:02:27.706Z,10.7
2019-02-06T02:03:27.756Z,10.9
2019-02-06T02:04:27.722Z,10.8
2019-02-06T02:05:27.803Z,11.1
2019-02-06T02:06:27.723Z,11.3
2019-02-06T02:07:27.708Z,11.3
2019-02-06T02:08:27.708Z,11.2
2019-02-06T02:09:27.717Z,11.2
2019-02-06T02:10:27.788Z,11.4
2019-02-06T02:11:27.711Z,11.3
2019-02-06T02:12:27.717Z,10.9
2019-02-06T02:13:27.695Z,10.9
2019-02-06T02:14:27.719Z,10.7
2019-02-06T02:15:27.777Z,10.6
2019-02-06T02:16:27.709Z,10.5
2019-02-06T02:17:27.714Z,10.7
2019-02-06T02:18:27.758Z,10.8
2019-02-06T02:19:27.702Z,10.8
2019-02-06T02:20:27.713Z,11
2019-02-06T02:21:27.705Z,11.2
2019-02-06T02:22:27.703Z,11
2019-02-06T02:23:27.886Z,10.9
2019-02-06T02:24:27.694Z,10.8
2019-02-06T02:25:27.707Z,10.9
2019-02-06T02:26:27.709Z,10.9
2019-02-06T02:27:27.707Z,11
2019-02-06T02:28:27.782Z,11.1
2019-02-06T02:29:27.688Z,11
2019-02-06T02:30:27.779Z,10.7
2019-02-06T02:31:27.718Z,10.7
2019-02-06T02:32:27.707Z,10.4
2019-02-06T02:33:27.707Z,10.5
2019-02-06T02:34:27.778Z,10.6
2019-02-06T02:35:27.690Z,10.8
2019-02-06T02:36:27.706Z,10.7
2019-02-06T02:37:27.773Z,10.3
2019-02-06T02:38:27.702Z,10.6
2019-02-06T02:39:27.792Z,10.7
2019-02-06T02:40:27.690Z,10.9
2019-02-06T02:41:27.688Z,10.8
2019-02-06T02:42:27.863Z,10.5
2019-02-06T02:43:27.702Z,10.5
2019-02-06T02:44:27.756Z,10.3
2019-02-06T02:45:27.763Z,10
2019-02-06T02:46:27.696Z,9.4
2019-02-06T02:47:27.698Z,8.5
2019-02-06T02:48:27.699Z,8.3
2019-02-06T02:49:27.769Z,8.5
2019-02-06T02:50:27.696Z,8.9
2019-02-06T02:51:27.686Z,9.1
2019-02-06T02:52:27.751Z,8.4
2019-02-06T02:53:27.696Z,7.9
2019-02-06T02:54:27.694Z,7.5
2019-02-06T02:55:27.700Z,7.5
2019-02-06T02:56:27.759Z,7.5
2019-02-06T02:57:27.749Z,7.8
2019-02-06T02:58:27.702Z,8.2
2019-02-06T02:59:27.693Z,8.5
2019-02-06T03:00:27.693Z,9.2
2019-02-06T03:01:27.809Z,9.8
2019-02-06T03:02:27.685Z,10.1
2019-02-06T03:03:27.691Z,10.1
2019-02-06T03:04:27.691Z,9.6
2019-02-06T03:05:27.748Z,9.3
2019-02-06T03:06:28.673Z,9.1
2019-02-06T03:07:27.774Z,9.1
2019-02-06T03:08:27.742Z,9.1
2019-02-06T03:09:27.711Z,8.9
2019-02-06T03:10:27.691Z,8.8
2019-02-06T03:11:27.696Z,8.7
2019-02-06T03:12:29.769Z,8.4
2019-02-06T03:13:27.722Z,8
2019-02-06T03:14:28.026Z,7.5
2019-02-06T03:15:27.685Z,7.1
2019-02-06T03:16:27.687Z,6.5
2019-02-06T03:17:27.749Z,5.9
2019-02-06T03:18:27.728Z,5.3
2019-02-06T03:19:27.670Z,4.8
2019-02-06T03:20:27.687Z,4.3
2019-02-06T03:21:27.734Z,3.9
2019-02-06T03:22:27.690Z,3.6
2019-02-06T03:23:27.775Z,3.2
2019-02-06T03:24:27.747Z,2.9
2019-02-06T03:25:27.684Z,2.7
2019-02-06T03:26:27.682Z,2.4
2019-02-06T03:27:27.690Z,2.2
2019-02-06T03:28:27.681Z,2
2019-02-06T03:29:27.742Z,1.9
2019-02-06T03:30:27.689Z,1.7
2019-02-06T03:31:27.711Z,1.6
2019-02-06T03:32:27.669Z,1.6
2019-02-06T03:33:27.751Z,1.5
2019-02-06T03:34:27.677Z,1.4
2019-02-06T03:35:27.658Z,1.2
2019-02-06T03:36:39.427Z,1.1
2019-02-06T03:37:27.683Z,1
2019-02-06T03:38:27.731Z,0.9
2019-02-06T03:39:27.675Z,0.9
2019-02-06T03:40:27.733Z,0.8
2019-02-06T03:41:27.660Z,0.8
2019-02-06T03:42:27.676Z,1.1
2019-02-06T03:43:27.684Z,1.2
2019-02-06T03:44:27.678Z,1.6
2019-02-06T03:45:27.750Z,1.8
2019-02-06T03:46:27.661Z,1.8
2019-02-06T03:47:27.671Z,1.8
2019-02-06T03:48:27.739Z,1.8
2019-02-06T03:49:27.681Z,1.6
2019-02-06T03:50:27.734Z,1.4
2019-02-06T03:51:27.713Z,1.7
2019-02-06T03:52:27.682Z,2.2
2019-02-06T03:53:27.676Z,2.1
2019-02-06T03:54:27.667Z,1.9
2019-02-06T03:55:27.730Z,1.7
2019-02-06T03:56:27.659Z,1.9
2019-02-06T03:57:27.645Z,2.1
2019-02-06T03:58:27.725Z,2.2
2019-02-06T03:59:27.658Z,2.1
2019-02-06T04:00:27.667Z,2
2019-02-06T04:01:27.674Z,1.9
2019-02-06T04:02:27.652Z,1.7
2019-02-06T04:03:27.734Z,1.6
2019-02-06T04:04:27.735Z,1.8
2019-02-06T04:05:27.738Z,2.2
2019-02-06T04:06:27.664Z,2.4
2019-02-06T04:07:27.669Z,2.4
2019-02-06T04:08:27.639Z,2.5
2019-02-06T04:09:27.679Z,3
2019-02-06T04:10:27.737Z,3.5
2019-02-06T04:11:27.660Z,4.4
2019-02-06T04:12:27.697Z,5.1
2019-02-06T04:13:27.649Z,5.8
2019-02-06T04:14:27.660Z,6.3
2019-02-06T04:15:27.729Z,6.7
2019-02-06T04:16:27.663Z,7.3
2019-02-06T04:17:27.664Z,7.8
2019-02-06T04:18:27.662Z,8.1
2019-02-06T04:19:27.730Z,8.2
2019-02-06T04:20:27.656Z,8.3
2019-02-06T04:21:27.658Z,8.3
2019-02-06T04:22:27.652Z,8.4
2019-02-06T04:23:27.652Z,8.5
2019-02-06T04:24:27.709Z,8.6
2019-02-06T04:25:27.664Z,8.7
2019-02-06T04:26:27.652Z,8.8
2019-02-06T04:27:27.654Z,8.8
2019-02-06T04:28:27.664Z,8.7
2019-02-06T04:29:27.700Z,8.7
2019-02-06T04:30:27.662Z,8.7
2019-02-06T04:31:27.649Z,8.8
2019-02-06T04:32:27.654Z,8.8
2019-02-06T04:33:27.651Z,8.8
2019-02-06T04:34:27.712Z,8.6
2019-02-06T04:35:27.638Z,8.5
2019-02-06T04:36:27.645Z,8.4
2019-02-06T04:37:27.718Z,8.2
2019-02-06T04:38:27.656Z,7.6
2019-02-06T04:39:27.652Z,6.9
2019-02-06T04:40:27.705Z,6.8
2019-02-06T04:41:27.699Z,6.9
2019-02-06T04:42:27.655Z,6.8
2019-02-06T04:43:27.643Z,7.1
2019-02-06T04:44:27.649Z,7.4
2019-02-06T04:45:27.714Z,7.8
2019-02-06T04:46:27.638Z,8.1
2019-02-06T04:47:27.654Z,8.2
2019-02-06T04:48:27.648Z,8.8
2019-02-06T04:49:27.638Z,8.8
2019-02-06T04:50:27.705Z,9.2
2019-02-06T04:51:27.630Z,9.6
2019-02-06T04:52:27.642Z,9.8
2019-02-06T04:53:27.650Z,10
2019-02-06T04:54:27.742Z,10.2
2019-02-06T04:55:27.658Z,10.4
2019-02-06T04:56:27.657Z,10.6
2019-02-06T04:57:27.624Z,10.8
2019-02-06T04:58:27.635Z,11
2019-02-06T04:59:27.638Z,11.2
2019-02-06T05:00:27.641Z,11.3
2019-02-06T05:01:27.703Z,11.5
2019-02-06T05:02:27.629Z,11.7
2019-02-06T05:03:27.641Z,12.1
2019-02-06T05:04:27.645Z,12.4
2019-02-06T05:05:27.690Z,12.8
2019-02-06T05:06:27.804Z,13.1
2019-02-06T05:07:27.688Z,13.3
2019-02-06T05:08:27.617Z,13.5
2019-02-06T05:09:27.638Z,13.8
2019-02-06T05:10:27.631Z,14.2
2019-02-06T05:11:27.744Z,14.6
2019-02-06T05:12:27.709Z,14.9
2019-02-06T05:13:27.630Z,15
2019-02-06T05:14:27.636Z,14.5
2019-02-06T05:15:27.640Z,13.9
2019-02-06T05:16:27.630Z,13.3
2019-02-06T05:17:27.681Z,12.6
2019-02-06T05:18:27.627Z,11.9
2019-02-06T05:19:27.686Z,11.7
2019-02-06T05:20:27.633Z,11.4
2019-02-06T05:21:27.629Z,10.8
2019-02-06T05:22:27.624Z,10.4
2019-02-06T05:23:27.627Z,10.1
2019-02-06T05:24:27.687Z,9.8
2019-02-06T05:25:27.625Z,9.4
2019-02-06T05:26:27.696Z,8.9
2019-02-06T05:27:27.634Z,8.5
2019-02-06T05:28:27.687Z,7.9
2019-02-06T05:29:28.520Z,7.3
2019-02-06T05:30:27.686Z,6.9
2019-02-06T05:31:29.589Z,6.3
2019-02-06T05:32:27.621Z,6
2019-02-06T05:33:27.622Z,5.6
2019-02-06T05:34:27.628Z,5.1
2019-02-06T05:35:28.121Z,4.7
2019-02-06T05:36:27.631Z,4.5
2019-02-06T05:37:31.867Z,4.3
2019-02-06T05:38:27.623Z,3.9
2019-02-06T05:39:27.622Z,3.6
2019-02-06T05:40:27.674Z,3.5
2019-02-06T05:41:27.626Z,3.4
2019-02-06T05:42:27.622Z,3.2
2019-02-06T05:43:27.627Z,3.1
2019-02-06T05:44:27.672Z,2.9
2019-02-06T05:45:27.782Z,2.9
2019-02-06T05:46:27.608Z,2.9
2019-02-06T05:47:27.682Z,2.9
2019-02-06T05:48:27.622Z,2.7
2019-02-06T05:49:27.627Z,2.7
2019-02-06T05:50:27.620Z,2.4
2019-02-06T05:51:27.609Z,2.3
2019-02-06T05:52:27.716Z,2
2019-02-06T05:53:27.620Z,1.9
2019-02-06T05:54:27.678Z,1.9
2019-02-06T05:55:27.616Z,2.1
2019-02-06T05:56:27.634Z,2.3
2019-02-06T05:57:27.591Z,2.4
2019-02-06T05:58:27.614Z,2.4
2019-02-06T05:59:27.687Z,2.5
2019-02-06T06:00:27.617Z,2.8
2019-02-06T06:01:27.615Z,2.9
2019-02-06T06:02:27.596Z,2.9
2019-02-06T06:03:27.612Z,2.9
2019-02-06T06:04:27.690Z,2.8
2019-02-06T06:05:27.617Z,2.5
2019-02-06T06:06:29.655Z,2.3
2019-02-06T06:07:27.595Z,2.1
2019-02-06T06:08:27.664Z,1.9
2019-02-06T06:09:27.606Z,1.9
2019-02-06T06:10:27.605Z,1.7
2019-02-06T06:11:27.617Z,1.5
2019-02-06T06:12:27.602Z,1.4
2019-02-06T06:13:27.658Z,1.3
2019-02-06T06:14:27.607Z,1.1
2019-02-06T06:15:27.682Z,1.1
2019-02-06T06:16:27.609Z,1.2
2019-02-06T06:17:27.596Z,1.1
2019-02-06T06:18:27.665Z,1
2019-02-06T06:19:27.605Z,0.9
2019-02-06T06:20:27.604Z,0.8
2019-02-06T06:21:27.683Z,0.7
2019-02-06T06:22:27.595Z,0.7
2019-02-06T06:23:27.606Z,0.6
2019-02-06T06:24:27.584Z,0.7
2019-02-06T06:25:27.605Z,0.6
2019-02-06T06:26:27.668Z,0.5
2019-02-06T06:27:27.596Z,0.6
2019-02-06T06:28:27.645Z,0.7
2019-02-06T06:29:27.585Z,0.8
2019-02-06T06:30:27.659Z,0.7
2019-02-06T06:31:27.598Z,0.7
2019-02-06T06:32:27.608Z,0.6
2019-02-06T06:33:27.680Z,0.5
2019-02-06T06:34:27.608Z,0.5
2019-02-06T06:35:27.590Z,0.4
2019-02-06T06:36:27.601Z,0.4
2019-02-06T06:37:27.602Z,0.4
2019-02-06T06:38:27.655Z,0.3
2019-02-06T06:39:27.597Z,0.3
2019-02-06T06:40:27.572Z,0.3
2019-02-06T06:41:27.596Z,0.2
2019-02-06T06:42:27.593Z,0.2
2019-02-06T06:43:27.654Z,0.2
2019-02-06T06:44:27.594Z,0.2
2019-02-06T06:45:27.604Z,0.2
2019-02-06T06:46:27.645Z,0.3
2019-02-06T06:47:27.597Z,0.6
2019-02-06T06:48:27.588Z,1.1
2019-02-06T06:49:27.592Z,1.4
2019-02-06T06:50:27.645Z,1.3
2019-02-06T06:51:27.582Z,1.2
2019-02-06T06:52:27.590Z,1.1
2019-02-06T06:53:27.586Z,1.1
2019-02-06T06:54:27.593Z,1.1
2019-02-06T06:55:27.657Z,1.1
2019-02-06T06:56:27.575Z,1.3
2019-02-06T06:57:27.591Z,1.4
2019-02-06T06:58:27.592Z,1.3
2019-02-06T06:59:27.623Z,1.4
2019-02-06T07:00:27.643Z,1.3
2019-02-06T07:01:27.643Z,1.2
2019-02-06T07:02:27.565Z,1.1
2019-02-06T07:03:27.645Z,1
2019-02-06T07:04:27.725Z,0.9
2019-02-06T07:05:27.584Z,0.8
2019-02-06T07:06:28.291Z,0.7
2019-02-06T07:07:27.644Z,0.6
2019-02-06T07:08:27.582Z,0.6
2019-02-06T07:09:27.574Z,0.5
2019-02-06T07:10:27.647Z,0.5
2019-02-06T07:11:27.581Z,0.4
2019-02-06T07:12:27.586Z,0.4
2019-02-06T07:13:27.559Z,0.4
2019-02-06T07:14:27.611Z,0.3
2019-02-06T07:15:27.649Z,0.3
2019-02-06T07:16:27.579Z,0.3
2019-02-06T07:17:27.579Z,0.2
2019-02-06T07:18:27.560Z,0.2
2019-02-06T07:19:27.598Z,0.2
2019-02-06T07:20:27.636Z,0.2
2019-02-06T07:21:27.575Z,0.2
2019-02-06T07:22:27.580Z,0.1
2019-02-06T07:23:27.572Z,0.1
2019-02-06T07:24:27.554Z,0.1
2019-02-06T07:25:27.638Z,0.1
2019-02-06T07:26:27.642Z,0.1
2019-02-06T07:27:27.574Z,0.1
2019-02-06T07:28:27.571Z,0.1
2019-02-06T07:29:27.556Z,0.1
2019-02-06T07:30:27.554Z,0.1
2019-02-06T07:31:27.640Z,0.1
2019-02-06T07:32:27.572Z,0.1
2019-02-06T07:33:27.572Z,0
2019-02-06T07:34:27.575Z,0
2019-02-06T07:35:27.557Z,0
2019-02-06T07:36:27.638Z,0
2019-02-06T07:37:27.568Z,0
2019-02-06T07:38:27.574Z,0
2019-02-06T07:39:27.572Z,0
2019-02-06T07:40:27.549Z,0
2019-02-06T07:41:27.639Z,0
2019-02-06T07:42:27.565Z,0
2019-02-06T07:43:27.573Z,0
2019-02-06T07:44:27.565Z,0
2019-02-06T07:45:27.626Z,0
2019-02-06T07:46:27.546Z,0
2019-02-06T07:47:27.619Z,0
2019-02-06T07:48:27.568Z,0
2019-02-06T07:49:27.564Z,0.1
2019-02-06T07:50:27.637Z,0.4
2019-02-06T07:51:27.548Z,0.4
2019-02-06T07:52:27.558Z,0.4
2019-02-06T07:53:27.626Z,0.3
2019-02-06T07:54:27.636Z,0.3
2019-02-06T07:55:27.629Z,0.3
2019-02-06T07:56:27.549Z,0.3
2019-02-06T07:57:27.610Z,0.2
2019-02-06T07:58:27.556Z,0.2
2019-02-06T07:59:27.560Z,0.2
2019-02-06T08:00:27.557Z,0.2
2019-02-06T08:01:27.557Z,0.2
2019-02-06T08:02:27.619Z,0.1
2019-02-06T08:03:27.553Z,0.2
2019-02-06T08:04:27.564Z,0.1
2019-02-06T08:05:27.552Z,0.1
2019-02-06T08:06:27.559Z,0.1
2019-02-06T08:07:27.608Z,0.1
2019-02-06T08:08:35.555Z,0.4
2019-02-06T08:09:27.551Z,1
2019-02-06T08:10:27.554Z,1.3
2019-02-06T08:11:27.552Z,1.5
2019-02-06T08:12:27.550Z,1.6
2019-02-06T08:13:27.603Z,1.5
2019-02-06T08:14:27.543Z,1.3
2019-02-06T08:15:27.553Z,1.2
2019-02-06T08:16:27.547Z,1.1
2019-02-06T08:17:27.551Z,1
2019-02-06T08:18:27.613Z,0.9
2019-02-06T08:19:27.555Z,0.8
2019-02-06T08:20:27.603Z,0.7
2019-02-06T08:21:27.558Z,0.7
2019-02-06T08:22:27.540Z,0.6
2019-02-06T08:23:27.620Z,0.5
2019-02-06T08:24:27.535Z,0.5
2019-02-06T08:25:27.541Z,0.5
2019-02-06T08:26:27.546Z,0.4
2019-02-06T08:27:27.595Z,0.4
2019-02-06T08:28:27.615Z,0.3
2019-02-06T08:29:27.521Z,0.3
2019-02-06T08:30:27.542Z,0.3
2019-02-06T08:31:27.539Z,0.2
2019-02-06T08:32:27.533Z,0.2
2019-02-06T08:33:37.493Z,0.2
2019-02-06T08:34:27.543Z,0.2
2019-02-06T08:35:27.525Z,0.2
2019-02-06T08:36:27.539Z,0.2
2019-02-06T08:37:27.536Z,0.1
2019-02-06T08:38:27.607Z,0.1
2019-02-06T08:39:27.533Z,0.1
2019-02-06T08:40:27.520Z,0.1
2019-02-06T08:41:27.533Z,0.1
2019-02-06T08:42:27.535Z,0.1
2019-02-06T08:43:27.596Z,0.1
2019-02-06T08:44:27.595Z,0.1
2019-02-06T08:45:27.527Z,0.1
2019-02-06T08:46:27.522Z,0.1
2019-02-06T08:47:27.541Z,0.1
2019-02-06T08:48:27.536Z,0
2019-02-06T08:49:27.600Z,0
2019-02-06T08:50:27.537Z,0
2019-02-06T08:51:27.523Z,0
2019-02-06T08:52:27.534Z,0
2019-02-06T08:53:27.599Z,0
2019-02-06T08:54:27.600Z,0
2019-02-06T08:55:27.529Z,0
2019-02-06T08:56:27.569Z,0
2019-02-06T08:57:27.527Z,0
2019-02-06T08:58:27.523Z,0
2019-02-06T08:59:27.534Z,0
2019-02-06T09:00:27.604Z,0
2019-02-06T09:01:27.533Z,0.3
2019-02-06T09:02:27.650Z,0.7
2019-02-06T09:03:27.603Z,0.9
2019-02-06T09:04:27.537Z,1.2
2019-02-06T09:05:27.531Z,1.1
2019-02-06T09:06:27.533Z,1
2019-02-06T09:07:27.597Z,0.9
2019-02-06T09:08:27.525Z,0.8
2019-02-06T09:09:27.534Z,0.8
2019-02-06T09:10:27.537Z,0.7
2019-02-06T09:11:27.533Z,0.6
2019-02-06T09:12:27.595Z,0.6
2019-02-06T09:13:27.515Z,0.8
2019-02-06T09:14:27.602Z,0.7
2019-02-06T09:15:27.757Z,0.9
2019-02-06T09:16:27.523Z,1
2019-02-06T09:17:27.531Z,1.2
2019-02-06T09:18:27.510Z,1.5
2019-02-06T09:19:27.583Z,1.6
2019-02-06T09:20:27.529Z,1.7
2019-02-06T09:21:27.523Z,1.5
2019-02-06T09:22:27.532Z,1.6
2019-02-06T09:23:27.531Z,1.9
2019-02-06T09:24:27.682Z,1.9
2019-02-06T09:25:27.532Z,1.8
2019-02-06T09:26:27.529Z,1.7
2019-02-06T09:27:27.532Z,2.5
2019-02-06T09:28:27.538Z,3.5
2019-02-06T09:29:27.642Z,4.1
2019-02-06T09:30:27.541Z,5.3
2019-02-06T09:31:27.520Z,5.4
2019-02-06T09:32:27.530Z,5.9
2019-02-06T09:33:27.520Z,6.2
2019-02-06T09:34:27.583Z,6.6
2019-02-06T09:35:27.544Z,6.5
2019-02-06T09:36:27.522Z,6.2
2019-02-06T09:37:27.521Z,6.3
2019-02-06T09:38:27.517Z,6.3
2019-02-06T09:39:27.603Z,6.3
2019-02-06T09:40:27.514Z,6.3
2019-02-06T09:41:27.530Z,6.6
2019-02-06T09:42:27.531Z,6.9
2019-02-06T09:43:27.641Z,7.5
2019-02-06T09:44:27.525Z,8.4
2019-02-06T09:45:27.511Z,8.7
2019-02-06T09:46:27.508Z,8.5
2019-02-06T09:47:27.515Z,8.7
2019-02-06T09:48:27.593Z,8
2019-02-06T09:49:27.525Z,8.2
2019-02-06T09:50:27.522Z,8
2019-02-06T09:51:27.505Z,7.5
2019-02-06T09:52:28.830Z,7.1
2019-02-06T09:53:27.520Z,6.8
2019-02-06T09:54:27.531Z,6.7
2019-02-06T09:55:27.577Z,6.9
2019-02-06T09:56:27.583Z,7.4
2019-02-06T09:57:27.512Z,6.8
2019-02-06T09:58:27.603Z,6.4
2019-02-06T09:59:27.604Z,6.3
2019-02-06T10:00:27.526Z,6.9
2019-02-06T10:01:27.527Z,7.3
2019-02-06T10:02:27.504Z,7.3
2019-02-06T10:03:27.579Z,7.7
2019-02-06T10:04:27.527Z,7.9
2019-02-06T10:05:27.576Z,7.9
2019-02-06T10:06:27.526Z,7.9
2019-02-06T10:07:27.514Z,8
2019-02-06T10:08:27.532Z,7.9
2019-02-06T10:09:27.532Z,7.7
2019-02-06T10:10:27.619Z,7.4
2019-02-06T10:11:27.528Z,7.1
2019-02-06T10:12:27.527Z,6.6
2019-02-06T10:13:27.569Z,6.2
2019-02-06T10:14:27.518Z,5.8
2019-02-06T10:15:27.525Z,5.6
2019-02-06T10:16:27.596Z,5.3
2019-02-06T10:17:27.524Z,4.8
2019-02-06T10:18:27.526Z,4.4
2019-02-06T10:19:27.525Z,4.3
2019-02-06T10:20:27.602Z,4.1
2019-02-06T10:21:27.644Z,3.8
2019-02-06T10:22:27.524Z,3.8
2019-02-06T10:23:27.530Z,3.7
2019-02-06T10:24:27.576Z,3.7
2019-02-06T10:25:27.525Z,3.9
2019-02-06T10:26:27.583Z,4.1
2019-02-06T10:27:27.523Z,4.4
2019-02-06T10:28:27.529Z,4.4
2019-02-06T10:29:27.500Z,4.4
2019-02-06T10:30:27.520Z,4.3
2019-02-06T10:31:27.526Z,4
2019-02-06T10:32:27.521Z,3.6
2019-02-06T10:33:27.514Z,3.3
2019-02-06T10:34:27.553Z,2.9
2019-02-06T10:35:27.516Z,2.7
2019-02-06T10:36:27.518Z,2.4
2019-02-06T10:37:29.204Z,2.4
2019-02-06T10:38:27.595Z,2.3
2019-02-06T10:39:34.104Z,2.3
2019-02-06T10:40:27.500Z,2.4
2019-02-06T10:41:27.516Z,2.7
2019-02-06T10:42:27.575Z,2.5
2019-02-06T10:43:31.855Z,2.8
2019-02-06T10:44:27.626Z,3
2019-02-06T10:45:27.574Z,2.7
2019-02-06T10:46:27.591Z,3.1
2019-02-06T10:47:27.514Z,4
2019-02-06T10:48:27.586Z,4.8
2019-02-06T10:49:27.515Z,5.2
2019-02-06T10:50:27.569Z,5.3
2019-02-06T10:51:27.506Z,4.9
2019-02-06T10:52:27.522Z,4.4
2019-02-06T10:53:27.591Z,4
2019-02-06T10:54:27.520Z,3.6
2019-02-06T10:55:27.525Z,3.4
2019-02-06T10:56:27.510Z,3.3
2019-02-06T10:57:27.517Z,3.2
2019-02-06T10:58:27.580Z,3.1
2019-02-06T10:59:27.517Z,2.8
2019-02-06T11:00:29.781Z,2.6
2019-02-06T11:01:27.678Z,2.3
2019-02-06T11:02:27.502Z,2.3
2019-02-06T11:03:27.509Z,2.4
2019-02-06T11:04:27.519Z,2.2
2019-02-06T11:05:27.576Z,2
2019-02-06T11:06:27.521Z,2
2019-02-06T11:07:27.504Z,2
2019-02-06T11:08:27.575Z,2.1
2019-02-06T11:09:27.511Z,2.5
2019-02-06T11:10:27.522Z,2.8
2019-02-06T11:11:27.525Z,2.8
2019-02-06T11:12:27.519Z,2.7
2019-02-06T11:13:27.573Z,3.4
2019-02-06T11:14:27.534Z,4.1
2019-02-06T11:15:27.541Z,4.5
2019-02-06T11:16:27.511Z,4.6
2019-02-06T11:17:27.517Z,5
2019-02-06T11:18:27.568Z,5.1
2019-02-06T11:19:27.521Z,4.8
2019-02-06T11:20:27.520Z,4.4
2019-02-06T11:21:27.580Z,4.3
2019-02-06T11:22:27.511Z,4.6
2019-02-06T11:23:27.498Z,5
2019-02-06T11:24:27.500Z,5.5
2019-02-06T11:25:27.577Z,5.8
2019-02-06T11:26:27.584Z,6
2019-02-06T11:27:27.509Z,6.5
2019-02-06T11:28:27.515Z,6.6
2019-02-06T11:29:27.489Z,6.6
2019-02-06T11:30:27.511Z,6.6
2019-02-06T11:31:27.581Z,6.3
2019-02-06T11:32:27.516Z,5.8
2019-02-06T11:33:27.504Z,5.2
2019-02-06T11:34:27.503Z,4.7
2019-02-06T11:35:27.507Z,4.3
2019-02-06T11:36:27.565Z,4
2019-02-06T11:37:27.510Z,3.9
2019-02-06T11:38:27.975Z,3.9
2019-02-06T11:39:27.499Z,4.2
2019-02-06T11:40:27.492Z,4.3
2019-02-06T11:41:27.576Z,4.3
2019-02-06T11:42:27.512Z,4.2
2019-02-06T11:43:27.505Z,4
2019-02-06T11:44:27.513Z,4.3
2019-02-06T11:45:27.492Z,4.4
2019-02-06T11:46:27.487Z,4.7
2019-02-06T11:47:27.503Z,5
2019-02-06T11:48:27.581Z,5.3
2019-02-06T11:49:27.515Z,5.4
2019-02-06T11:50:27.503Z,5.3
2019-02-06T11:51:27.542Z,5.3
2019-02-06T11:52:27.506Z,5.2
2019-02-06T11:53:27.567Z,5.1
2019-02-06T11:54:27.502Z,5.6
2019-02-06T11:55:27.572Z,6.1
2019-02-06T11:56:27.486Z,6.4
2019-02-06T11:57:27.497Z,6.9
2019-02-06T11:58:27.576Z,7.3
2019-02-06T11:59:27.503Z,7.1
2019-02-06T12:00:27.560Z,7.3
2019-02-06T12:01:27.508Z,7.3
2019-02-06T12:02:36.908Z,7.1
2019-02-06T12:03:27.504Z,7.2
2019-02-06T12:04:27.566Z,6.9
2019-02-06T12:05:27.504Z,6.5
2019-02-06T12:06:27.586Z,6.1
2019-02-06T12:07:27.486Z,5.8
2019-02-06T12:08:27.503Z,5.7
2019-02-06T12:09:27.499Z,5.5
2019-02-06T12:10:27.511Z,5.5
2019-02-06T12:11:27.609Z,5.2
2019-02-06T12:12:27.499Z,4.9
2019-02-06T12:13:27.554Z,4.9
2019-02-06T12:14:27.498Z,4.8
2019-02-06T12:15:27.499Z,4.6
2019-02-06T12:16:27.599Z,4.2
2019-02-06T12:17:27.500Z,4.1
2019-02-06T12:18:27.525Z,4
2019-02-06T12:19:27.502Z,4.1
2019-02-06T12:20:27.564Z,4.3
2019-02-06T12:21:27.503Z,4.4
2019-02-06T12:22:27.508Z,4.7
2019-02-06T12:23:32.042Z,4.8
2019-02-06T12:24:27.487Z,4.8
2019-02-06T12:25:27.506Z,5.1
2019-02-06T12:26:27.576Z,5.6
2019-02-06T12:27:27.500Z,5.9
2019-02-06T12:28:27.506Z,6.7
2019-02-06T12:29:27.485Z,7.5
2019-02-06T12:30:27.561Z,8
2019-02-06T12:31:27.500Z,8.5
2019-02-06T12:32:27.507Z,8.8
2019-02-06T12:33:27.581Z,8.3
2019-02-06T12:34:27.493Z,8
2019-02-06T12:35:27.486Z,8.2
2019-02-06T12:36:27.498Z,8.9
2019-02-06T12:37:27.557Z,9.1
2019-02-06T12:38:27.500Z,9.6
2019-02-06T12:39:27.498Z,9.7
2019-02-06T12:40:27.658Z,9.9
2019-02-06T12:41:27.496Z,9.7
2019-02-06T12:42:27.501Z,9.1
2019-02-06T12:43:27.510Z,8.5
2019-02-06T12:44:27.502Z,7.8
2019-02-06T12:45:27.542Z,7.4
2019-02-06T12:46:27.503Z,7.3
2019-02-06T12:47:27.496Z,7.4
2019-02-06T12:48:27.494Z,7.2
2019-02-06T12:49:27.573Z,7.3
2019-02-06T12:50:27.499Z,7.5
2019-02-06T12:51:27.486Z,7.2
2019-02-06T12:52:27.514Z,6.9
2019-02-06T12:53:27.494Z,6.8
2019-02-06T12:54:27.549Z,6.5
2019-02-06T12:55:27.503Z,6.1
2019-02-06T12:56:27.557Z,6.2
2019-02-06T12:57:36.184Z,6.9
2019-02-06T12:58:27.499Z,7.2
2019-02-06T12:59:27.496Z,7.8
2019-02-06T13:00:27.556Z,8.4
2019-02-06T13:01:27.548Z,8.7
2019-02-06T13:02:27.529Z,9.3
2019-02-06T13:03:27.497Z,9.4
2019-02-06T13:04:27.503Z,9.4
2019-02-06T13:05:27.568Z,9.1
2019-02-06T13:06:27.533Z,8.8
2019-02-06T13:07:27.541Z,8.9
2019-02-06T13:08:27.503Z,8.9
2019-02-06T13:09:27.499Z,9.2
2019-02-06T13:10:33.613Z,9.6
2019-02-06T13:11:27.557Z,10.1
2019-02-06T13:12:27.510Z,10.8
2019-02-06T13:13:27.524Z,11.5
2019-02-06T13:14:27.576Z,12.2
2019-02-06T13:15:27.522Z,13.2
2019-02-06T13:16:27.488Z,13.3
2019-02-06T13:17:27.569Z,13.9
2019-02-06T13:18:27.535Z,13.8
2019-02-06T13:19:27.497Z,13.6
2019-02-06T13:20:27.490Z,12.8
2019-02-06T13:21:27.574Z,12.6
2019-02-06T13:22:27.489Z,12
2019-02-06T13:23:27.550Z,12.1
2019-02-06T13:24:27.476Z,11.9
2019-02-06T13:25:27.491Z,11.1
2019-02-06T13:26:27.496Z,11.2
2019-02-06T13:27:27.559Z,11
2019-02-06T13:28:27.492Z,10.8
2019-02-06T13:29:27.543Z,10.7
2019-02-06T13:30:27.491Z,10.2
2019-02-06T13:31:27.477Z,9.7
2019-02-06T13:32:27.547Z,9.7
2019-02-06T13:33:27.485Z,9.3
2019-02-06T13:34:27.495Z,9.2
2019-02-06T13:35:27.556Z,9.2
2019-02-06T13:36:27.493Z,9.1
2019-02-06T13:37:27.487Z,9.3
2019-02-06T13:38:27.485Z,9.7
2019-02-06T13:39:27.488Z,9.8
2019-02-06T13:40:27.545Z,9.5
2019-02-06T13:41:27.493Z,9.4
2019-02-06T13:42:27.481Z,9.2
2019-02-06T13:43:27.486Z,9.2
2019-02-06T13:44:27.544Z,9.1
2019-02-06T13:45:27.472Z,9.4
2019-02-06T13:46:27.538Z,9.1
2019-02-06T13:47:27.558Z,8.9
2019-02-06T13:48:27.483Z,9.1
2019-02-06T13:49:27.564Z,9